sensor_id;sensor_type;location;lat;lon;timestamp;P1;durP1;ratioP1;P2;durP2;ratioP2
41709;SDS011;59402;48.396;-4.472;2022-08-27T00:02:07;8.30;;;2.17;;
41709;SDS011;59402;48.396;-4.472;2022-08-27T00:04:34;8.65;;;2.00;;
41709;SDS011;59402;48.396;-4.472;2022-08-27T00:07:01;11.88;;;2.33;;
41709;SDS011;59402;48.396;-4.472;2022-08-27T00:09:27;8.45;;;2.00;;
41709;SDS011;59402;48.396;-4.472;2022-08-27T00:11:54;7.57;;;1.98;;
41709;SDS011;59402;48.396;-4.472;2022-08-27T00:14:20;10.02;;;2.30;;
41709;SDS011;59402;48.396;-4.472;2022-08-27T00:16:46;7.65;;;1.90;;
41709;SDS011;59402;48.396;-4.472;2022-08-27T00:19:12;11.38;;;2.22;;
41709;SDS011;59402;48.396;-4.472;2022-08-27T00:21:38;6.32;;;2.10;;
41709;SDS011;59402;48.396;-4.472;2022-08-27T00:24:04;6.30;;;2.28;;
41709;SDS011;59402;48.396;-4.472;2022-08-27T00:26:30;10.00;;;2.15;;
41709;SDS011;59402;48.396;-4.472;2022-08-27T00:28:56;6.43;;;2.15;;
41709;SDS011;59402;48.396;-4.472;2022-08-27T00:31:21;9.77;;;2.17;;
41709;SDS011;59402;48.396;-4.472;2022-08-27T00:33:47;10.57;;;2.42;;
41709;SDS011;59402;48.396;-4.472;2022-08-27T00:36:13;12.07;;;2.58;;
41709;SDS011;59402;48.396;-4.472;2022-08-27T00:38:39;10.52;;;3.08;;
41709;SDS011;59402;48.396;-4.472;2022-08-27T00:41:06;14.77;;;2.80;;
41709;SDS011;59402;48.396;-4.472;2022-08-27T00:43:45;12.63;;;2.78;;
41709;SDS011;59402;48.396;-4.472;2022-08-27T00:46:22;9.65;;;2.78;;
41709;SDS011;59402;48.396;-4.472;2022-08-27T00:48:52;11.93;;;3.03;;
41709;SDS011;59402;48.396;-4.472;2022-08-27T00:51:19;10.27;;;2.92;;
41709;SDS011;59402;48.396;-4.472;2022-08-27T00:53:47;10.90;;;3.65;;
41709;SDS011;59402;48.396;-4.472;2022-08-27T00:56:15;9.68;;;3.47;;
41709;SDS011;59402;48.396;-4.472;2022-08-27T00:58:45;9.70;;;3.60;;
41709;SDS011;59402;48.396;-4.472;2022-08-27T01:01:14;14.82;;;3.60;;
41709;SDS011;59402;48.396;-4.472;2022-08-27T01:03:43;10.35;;;4.15;;
41709;SDS011;59402;48.396;-4.472;2022-08-27T01:06:12;9.80;;;3.80;;
41709;SDS011;59402;48.396;-4.472;2022-08-27T01:08:41;11.75;;;3.95;;
41709;SDS011;59402;48.396;-4.472;2022-08-27T01:11:11;11.20;;;4.30;;
41709;SDS011;59402;48.396;-4.472;2022-08-27T01:13:40;9.77;;;4.50;;
41709;SDS011;59402;48.396;-4.472;2022-08-27T01:16:06;11.43;;;4.80;;
41709;SDS011;59402;48.396;-4.472;2022-08-27T01:18:34;8.38;;;4.78;;
41709;SDS011;59402;48.396;-4.472;2022-08-27T01:26:25;10.15;;;4.80;;
41709;SDS011;59402;48.396;-4.472;2022-08-27T01:28:52;8.93;;;4.40;;
41709;SDS011;59402;48.396;-4.472;2022-08-27T01:31:17;7.55;;;4.28;;
41709;SDS011;59402;48.396;-4.472;2022-08-27T01:33:53;15.70;;;4.95;;
41709;SDS011;59402;48.396;-4.472;2022-08-27T01:36:22;12.93;;;4.75;;
41709;SDS011;59402;48.396;-4.472;2022-08-27T01:38:48;16.98;;;5.18;;
41709;SDS011;59402;48.396;-4.472;2022-08-27T01:41:14;12.32;;;4.72;;
41709;SDS011;59402;48.396;-4.472;2022-08-27T01:43:40;11.95;;;4.72;;
41709;SDS011;59402;48.396;-4.472;2022-08-27T01:46:06;10.77;;;4.45;;
41709;SDS011;59402;48.396;-4.472;2022-08-27T01:48:32;11.70;;;4.63;;
41709;SDS011;59402;48.396;-4.472;2022-08-27T01:50:57;12.90;;;5.07;;
41709;SDS011;59402;48.396;-4.472;2022-08-27T01:53:23;14.50;;;5.93;;
41709;SDS011;59402;48.396;-4.472;2022-08-27T01:55:51;10.25;;;5.60;;
41709;SDS011;59402;48.396;-4.472;2022-08-27T01:58:19;10.90;;;5.85;;
41709;SDS011;59402;48.396;-4.472;2022-08-27T02:00:47;8.85;;;5.30;;
41709;SDS011;59402;48.396;-4.472;2022-08-27T02:03:16;11.70;;;5.32;;
41709;SDS011;59402;48.396;-4.472;2022-08-27T02:05:43;13.30;;;5.53;;
41709;SDS011;59402;48.396;-4.472;2022-08-27T02:08:09;9.38;;;6.07;;
41709;SDS011;59402;48.396;-4.472;2022-08-27T02:10:36;9.00;;;5.40;;
41709;SDS011;59402;48.396;-4.472;2022-08-27T02:13:04;9.82;;;5.30;;
41709;SDS011;59402;48.396;-4.472;2022-08-27T02:15:31;12.80;;;5.68;;
41709;SDS011;59402;48.396;-4.472;2022-08-27T02:17:58;14.80;;;5.55;;
41709;SDS011;59402;48.396;-4.472;2022-08-27T02:20:24;10.77;;;5.15;;
41709;SDS011;59402;48.396;-4.472;2022-08-27T02:22:50;13.10;;;5.20;;
41709;SDS011;59402;48.396;-4.472;2022-08-27T02:25:16;11.00;;;4.90;;
41709;SDS011;59402;48.396;-4.472;2022-08-27T02:27:44;9.90;;;5.40;;
41709;SDS011;59402;48.396;-4.472;2022-08-27T02:30:12;10.00;;;4.70;;
41709;SDS011;59402;48.396;-4.472;2022-08-27T02:32:39;14.38;;;5.38;;
41709;SDS011;59402;48.396;-4.472;2022-08-27T02:35:05;11.25;;;5.10;;
41709;SDS011;59402;48.396;-4.472;2022-08-27T02:37:33;10.77;;;5.00;;
41709;SDS011;59402;48.396;-4.472;2022-08-27T02:39:59;8.85;;;4.50;;
41709;SDS011;59402;48.396;-4.472;2022-08-27T02:42:25;8.75;;;5.13;;
41709;SDS011;59402;48.396;-4.472;2022-08-27T02:44:51;13.07;;;5.03;;
41709;SDS011;59402;48.396;-4.472;2022-08-27T02:47:18;9.98;;;4.85;;
41709;SDS011;59402;48.396;-4.472;2022-08-27T02:49:43;6.97;;;4.68;;
41709;SDS011;59402;48.396;-4.472;2022-08-27T02:52:09;16.02;;;5.28;;
41709;SDS011;59402;48.396;-4.472;2022-08-27T02:54:35;9.90;;;4.90;;
41709;SDS011;59402;48.396;-4.472;2022-08-27T02:57:01;9.68;;;4.85;;
41709;SDS011;59402;48.396;-4.472;2022-08-27T02:59:26;11.35;;;5.55;;
41709;SDS011;59402;48.396;-4.472;2022-08-27T03:01:52;13.60;;;6.13;;
41709;SDS011;59402;48.396;-4.472;2022-08-27T03:04:17;12.02;;;5.22;;
41709;SDS011;59402;48.396;-4.472;2022-08-27T03:06:44;17.13;;;5.68;;
41709;SDS011;59402;48.396;-4.472;2022-08-27T03:09:10;8.45;;;5.25;;
41709;SDS011;59402;48.396;-4.472;2022-08-27T03:11:36;11.93;;;5.50;;
41709;SDS011;59402;48.396;-4.472;2022-08-27T03:14:02;9.45;;;5.60;;
41709;SDS011;59402;48.396;-4.472;2022-08-27T03:16:27;14.32;;;6.60;;
41709;SDS011;59402;48.396;-4.472;2022-08-27T03:18:53;12.77;;;6.63;;
41709;SDS011;59402;48.396;-4.472;2022-08-27T03:21:20;13.75;;;6.40;;
41709;SDS011;59402;48.396;-4.472;2022-08-27T03:23:48;10.30;;;6.43;;
41709;SDS011;59402;48.396;-4.472;2022-08-27T03:26:15;11.60;;;6.43;;
41709;SDS011;59402;48.396;-4.472;2022-08-27T03:28:42;10.17;;;6.50;;
41709;SDS011;59402;48.396;-4.472;2022-08-27T03:31:12;9.33;;;6.70;;
41709;SDS011;59402;48.396;-4.472;2022-08-27T03:33:40;16.73;;;7.10;;
41709;SDS011;59402;48.396;-4.472;2022-08-27T03:36:07;9.88;;;6.45;;
41709;SDS011;59402;48.396;-4.472;2022-08-27T03:38:33;12.13;;;6.80;;
41709;SDS011;59402;48.396;-4.472;2022-08-27T03:41:00;13.88;;;6.85;;
41709;SDS011;59402;48.396;-4.472;2022-08-27T03:43:26;10.70;;;7.00;;
41709;SDS011;59402;48.396;-4.472;2022-08-27T03:45:52;19.05;;;8.20;;
41709;SDS011;59402;48.396;-4.472;2022-08-27T03:48:18;11.98;;;7.75;;
41709;SDS011;59402;48.396;-4.472;2022-08-27T03:50:45;11.27;;;7.65;;
41709;SDS011;59402;48.396;-4.472;2022-08-27T03:53:12;12.35;;;7.53;;
41709;SDS011;59402;48.396;-4.472;2022-08-27T03:55:39;12.30;;;7.55;;
41709;SDS011;59402;48.396;-4.472;2022-08-27T03:58:06;10.38;;;7.55;;
41709;SDS011;59402;48.396;-4.472;2022-08-27T04:00:31;10.80;;;8.13;;
41709;SDS011;59402;48.396;-4.472;2022-08-27T04:02:57;11.20;;;7.40;;
41709;SDS011;59402;48.396;-4.472;2022-08-27T04:05:22;11.32;;;7.75;;
41709;SDS011;59402;48.396;-4.472;2022-08-27T04:07:48;12.65;;;6.80;;
41709;SDS011;59402;48.396;-4.472;2022-08-27T04:10:14;12.13;;;7.30;;
41709;SDS011;59402;48.396;-4.472;2022-08-27T04:12:42;13.35;;;7.65;;
41709;SDS011;59402;48.396;-4.472;2022-08-27T04:15:08;12.80;;;7.55;;
41709;SDS011;59402;48.396;-4.472;2022-08-27T04:17:35;11.57;;;7.15;;
41709;SDS011;59402;48.396;-4.472;2022-08-27T04:20:01;11.30;;;7.35;;
41709;SDS011;59402;48.396;-4.472;2022-08-27T04:22:27;9.80;;;7.53;;
41709;SDS011;59402;48.396;-4.472;2022-08-27T04:24:53;10.10;;;7.15;;
41709;SDS011;59402;48.396;-4.472;2022-08-27T04:27:19;10.50;;;7.28;;
41709;SDS011;59402;48.396;-4.472;2022-08-27T04:29:45;9.85;;;7.55;;
41709;SDS011;59402;48.396;-4.472;2022-08-27T04:32:11;14.90;;;8.00;;
41709;SDS011;59402;48.396;-4.472;2022-08-27T04:34:37;14.20;;;7.43;;
41709;SDS011;59402;48.396;-4.472;2022-08-27T04:37:03;12.65;;;7.40;;
41709;SDS011;59402;48.396;-4.472;2022-08-27T04:39:30;11.80;;;7.25;;
41709;SDS011;59402;48.396;-4.472;2022-08-27T04:41:56;15.05;;;7.40;;
41709;SDS011;59402;48.396;-4.472;2022-08-27T04:44:27;14.05;;;6.82;;
41709;SDS011;59402;48.396;-4.472;2022-08-27T04:46:55;12.10;;;7.72;;
41709;SDS011;59402;48.396;-4.472;2022-08-27T04:51:48;14.98;;;6.95;;
41709;SDS011;59402;48.396;-4.472;2022-08-27T04:54:13;9.40;;;7.28;;
41709;SDS011;59402;48.396;-4.472;2022-08-27T04:56:39;9.70;;;7.07;;
41709;SDS011;59402;48.396;-4.472;2022-08-27T04:59:05;12.60;;;7.85;;
41709;SDS011;59402;48.396;-4.472;2022-08-27T05:03:58;17.13;;;7.93;;
41709;SDS011;59402;48.396;-4.472;2022-08-27T05:06:24;14.65;;;8.63;;
41709;SDS011;59402;48.396;-4.472;2022-08-27T05:08:50;10.30;;;7.50;;
41709;SDS011;59402;48.396;-4.472;2022-08-27T05:11:18;12.90;;;7.82;;
41709;SDS011;59402;48.396;-4.472;2022-08-27T05:13:45;12.38;;;8.10;;
41709;SDS011;59402;48.396;-4.472;2022-08-27T05:16:13;17.02;;;8.73;;
41709;SDS011;59402;48.396;-4.472;2022-08-27T05:18:40;12.70;;;8.65;;
41709;SDS011;59402;48.396;-4.472;2022-08-27T05:21:06;13.38;;;8.38;;
41709;SDS011;59402;48.396;-4.472;2022-08-27T05:23:33;13.40;;;8.68;;
41709;SDS011;59402;48.396;-4.472;2022-08-27T05:25:59;14.77;;;9.05;;
41709;SDS011;59402;48.396;-4.472;2022-08-27T05:28:25;10.52;;;7.57;;
41709;SDS011;59402;48.396;-4.472;2022-08-27T05:30:53;10.57;;;8.48;;
41709;SDS011;59402;48.396;-4.472;2022-08-27T05:33:21;12.43;;;8.88;;
41709;SDS011;59402;48.396;-4.472;2022-08-27T05:35:50;18.08;;;9.18;;
41709;SDS011;59402;48.396;-4.472;2022-08-27T05:38:17;12.85;;;8.93;;
41709;SDS011;59402;48.396;-4.472;2022-08-27T05:40:44;13.73;;;9.13;;
41709;SDS011;59402;48.396;-4.472;2022-08-27T05:45:44;11.50;;;7.78;;
41709;SDS011;59402;48.396;-4.472;2022-08-27T05:48:12;12.88;;;8.18;;
41709;SDS011;59402;48.396;-4.472;2022-08-27T05:53:08;15.52;;;7.55;;
41709;SDS011;59402;48.396;-4.472;2022-08-27T05:55:39;11.15;;;7.85;;
41709;SDS011;59402;48.396;-4.472;2022-08-27T05:58:07;14.05;;;8.00;;
41709;SDS011;59402;48.396;-4.472;2022-08-27T06:00:53;12.13;;;8.10;;
41709;SDS011;59402;48.396;-4.472;2022-08-27T06:03:29;12.55;;;9.02;;
41709;SDS011;59402;48.396;-4.472;2022-08-27T06:05:59;12.40;;;8.68;;
41709;SDS011;59402;48.396;-4.472;2022-08-27T06:08:25;11.85;;;7.93;;
41709;SDS011;59402;48.396;-4.472;2022-08-27T06:10:51;11.52;;;8.05;;
41709;SDS011;59402;48.396;-4.472;2022-08-27T06:13:17;11.20;;;7.72;;
41709;SDS011;59402;48.396;-4.472;2022-08-27T06:15:42;12.27;;;8.60;;
41709;SDS011;59402;48.396;-4.472;2022-08-27T06:18:08;12.15;;;8.02;;
41709;SDS011;59402;48.396;-4.472;2022-08-27T06:20:33;15.20;;;7.95;;
41709;SDS011;59402;48.396;-4.472;2022-08-27T06:22:59;12.63;;;7.93;;
41709;SDS011;59402;48.396;-4.472;2022-08-27T06:25:24;14.30;;;7.70;;
41709;SDS011;59402;48.396;-4.472;2022-08-27T06:27:50;12.10;;;7.88;;
41709;SDS011;59402;48.396;-4.472;2022-08-27T06:30:15;8.82;;;7.57;;
41709;SDS011;59402;48.396;-4.472;2022-08-27T06:32:41;9.93;;;7.60;;
41709;SDS011;59402;48.396;-4.472;2022-08-27T06:35:06;12.90;;;7.57;;
41709;SDS011;59402;48.396;-4.472;2022-08-27T06:37:32;13.07;;;7.53;;
41709;SDS011;59402;48.396;-4.472;2022-08-27T06:39:57;12.38;;;7.28;;
41709;SDS011;59402;48.396;-4.472;2022-08-27T06:42:23;8.95;;;7.38;;
41709;SDS011;59402;48.396;-4.472;2022-08-27T06:44:51;13.43;;;7.53;;
41709;SDS011;59402;48.396;-4.472;2022-08-27T06:47:18;12.43;;;7.38;;
41709;SDS011;59402;48.396;-4.472;2022-08-27T06:49:44;9.57;;;6.82;;
41709;SDS011;59402;48.396;-4.472;2022-08-27T06:52:09;9.98;;;6.68;;
41709;SDS011;59402;48.396;-4.472;2022-08-27T06:54:35;12.73;;;6.30;;
41709;SDS011;59402;48.396;-4.472;2022-08-27T06:57:00;9.98;;;6.03;;
41709;SDS011;59402;48.396;-4.472;2022-08-27T06:59:26;12.50;;;6.53;;
41709;SDS011;59402;48.396;-4.472;2022-08-27T07:01:51;11.30;;;6.10;;
41709;SDS011;59402;48.396;-4.472;2022-08-27T07:04:18;10.77;;;5.45;;
41709;SDS011;59402;48.396;-4.472;2022-08-27T07:06:46;12.35;;;5.43;;
41709;SDS011;59402;48.396;-4.472;2022-08-27T07:09:12;7.25;;;4.88;;
41709;SDS011;59402;48.396;-4.472;2022-08-27T07:11:38;6.45;;;4.35;;
41709;SDS011;59402;48.396;-4.472;2022-08-27T07:14:04;8.80;;;4.43;;
41709;SDS011;59402;48.396;-4.472;2022-08-27T07:18:58;7.22;;;3.80;;
41709;SDS011;59402;48.396;-4.472;2022-08-27T07:21:26;8.73;;;3.22;;
41709;SDS011;59402;48.396;-4.472;2022-08-27T07:23:53;6.28;;;2.55;;
41709;SDS011;59402;48.396;-4.472;2022-08-27T07:26:23;4.18;;;2.13;;
41709;SDS011;59402;48.396;-4.472;2022-08-27T07:28:50;6.45;;;2.40;;
41709;SDS011;59402;48.396;-4.472;2022-08-27T07:33:44;3.42;;;1.90;;
41709;SDS011;59402;48.396;-4.472;2022-08-27T07:36:11;6.20;;;1.42;;
41709;SDS011;59402;48.396;-4.472;2022-08-27T07:38:36;4.30;;;1.40;;
41709;SDS011;59402;48.396;-4.472;2022-08-27T07:41:08;4.57;;;1.50;;
41709;SDS011;59402;48.396;-4.472;2022-08-27T07:43:35;3.60;;;1.30;;
41709;SDS011;59402;48.396;-4.472;2022-08-27T07:46:20;3.15;;;1.20;;
41709;SDS011;59402;48.396;-4.472;2022-08-27T07:48:46;2.92;;;1.33;;
41709;SDS011;59402;48.396;-4.472;2022-08-27T07:51:13;6.43;;;1.40;;
41709;SDS011;59402;48.396;-4.472;2022-08-27T07:53:41;5.22;;;2.42;;
41709;SDS011;59402;48.396;-4.472;2022-08-27T07:56:08;8.43;;;1.80;;
41709;SDS011;59402;48.396;-4.472;2022-08-27T07:58:33;7.68;;;1.48;;
41709;SDS011;59402;48.396;-4.472;2022-08-27T08:00:59;7.30;;;1.75;;
41709;SDS011;59402;48.396;-4.472;2022-08-27T08:03:25;3.50;;;1.10;;
41709;SDS011;59402;48.396;-4.472;2022-08-27T08:05:52;4.13;;;1.27;;
41709;SDS011;59402;48.396;-4.472;2022-08-27T08:08:21;5.18;;;1.50;;
41709;SDS011;59402;48.396;-4.472;2022-08-27T08:10:48;6.85;;;1.50;;
41709;SDS011;59402;48.396;-4.472;2022-08-27T08:13:14;3.17;;;1.25;;
41709;SDS011;59402;48.396;-4.472;2022-08-27T08:15:44;6.10;;;1.48;;
41709;SDS011;59402;48.396;-4.472;2022-08-27T08:18:11;5.65;;;1.58;;
41709;SDS011;59402;48.396;-4.472;2022-08-27T08:20:37;5.88;;;1.00;;
41709;SDS011;59402;48.396;-4.472;2022-08-27T08:23:02;6.53;;;1.10;;
41709;SDS011;59402;48.396;-4.472;2022-08-27T08:25:28;7.60;;;0.90;;
41709;SDS011;59402;48.396;-4.472;2022-08-27T08:27:54;2.88;;;0.85;;
41709;SDS011;59402;48.396;-4.472;2022-08-27T08:30:20;2.95;;;0.90;;
41709;SDS011;59402;48.396;-4.472;2022-08-27T08:32:46;2.78;;;0.88;;
41709;SDS011;59402;48.396;-4.472;2022-08-27T08:35:12;3.10;;;0.90;;
41709;SDS011;59402;48.396;-4.472;2022-08-27T08:37:40;4.07;;;0.80;;
41709;SDS011;59402;48.396;-4.472;2022-08-27T08:40:07;4.25;;;1.15;;
41709;SDS011;59402;48.396;-4.472;2022-08-27T08:42:38;5.47;;;1.30;;
41709;SDS011;59402;48.396;-4.472;2022-08-27T08:45:08;3.60;;;1.10;;
41709;SDS011;59402;48.396;-4.472;2022-08-27T08:47:40;5.32;;;1.30;;
41709;SDS011;59402;48.396;-4.472;2022-08-27T08:50:18;4.65;;;1.10;;
41709;SDS011;59402;48.396;-4.472;2022-08-27T08:52:56;4.95;;;1.20;;
41709;SDS011;59402;48.396;-4.472;2022-08-27T08:58:08;3.00;;;1.08;;
41709;SDS011;59402;48.396;-4.472;2022-08-27T09:00:36;4.65;;;1.30;;
41709;SDS011;59402;48.396;-4.472;2022-08-27T09:03:03;4.07;;;0.85;;
41709;SDS011;59402;48.396;-4.472;2022-08-27T09:05:30;3.38;;;0.95;;
41709;SDS011;59402;48.396;-4.472;2022-08-27T09:07:57;3.05;;;1.10;;
41709;SDS011;59402;48.396;-4.472;2022-08-27T09:13:05;6.13;;;1.00;;
41709;SDS011;59402;48.396;-4.472;2022-08-27T09:15:57;5.10;;;0.90;;
41709;SDS011;59402;48.396;-4.472;2022-08-27T09:18:26;3.10;;;0.70;;
41709;SDS011;59402;48.396;-4.472;2022-08-27T09:20:53;5.93;;;1.05;;
41709;SDS011;59402;48.396;-4.472;2022-08-27T09:23:36;4.75;;;0.85;;
41709;SDS011;59402;48.396;-4.472;2022-08-27T09:26:22;4.40;;;0.80;;
41709;SDS011;59402;48.396;-4.472;2022-08-27T09:28:57;2.67;;;0.73;;
41709;SDS011;59402;48.396;-4.472;2022-08-27T09:31:40;3.33;;;1.00;;
41709;SDS011;59402;48.396;-4.472;2022-08-27T09:34:07;3.28;;;0.90;;
41709;SDS011;59402;48.396;-4.472;2022-08-27T09:36:33;3.92;;;0.95;;
41709;SDS011;59402;48.396;-4.472;2022-08-27T09:39:00;6.55;;;1.13;;
41709;SDS011;59402;48.396;-4.472;2022-08-27T09:41:40;2.92;;;1.00;;
41709;SDS011;59402;48.396;-4.472;2022-08-27T09:44:10;3.97;;;1.00;;
41709;SDS011;59402;48.396;-4.472;2022-08-27T09:46:37;6.28;;;0.80;;
41709;SDS011;59402;48.396;-4.472;2022-08-27T09:49:10;3.83;;;1.05;;
41709;SDS011;59402;48.396;-4.472;2022-08-27T09:51:38;7.82;;;1.20;;
41709;SDS011;59402;48.396;-4.472;2022-08-27T09:54:07;2.53;;;0.80;;
41709;SDS011;59402;48.396;-4.472;2022-08-27T09:56:40;2.97;;;0.90;;
41709;SDS011;59402;48.396;-4.472;2022-08-27T10:01:53;4.65;;;0.90;;
41709;SDS011;59402;48.396;-4.472;2022-08-27T10:06:57;3.05;;;0.77;;
41709;SDS011;59402;48.396;-4.472;2022-08-27T10:12:18;2.58;;;0.88;;
41709;SDS011;59402;48.396;-4.472;2022-08-27T10:14:51;5.50;;;1.05;;
41709;SDS011;59402;48.396;-4.472;2022-08-27T10:25:20;3.13;;;0.77;;
41709;SDS011;59402;48.396;-4.472;2022-08-27T10:27:53;4.05;;;0.80;;
41709;SDS011;59402;48.396;-4.472;2022-08-27T10:38:20;4.65;;;0.90;;
41709;SDS011;59402;48.396;-4.472;2022-08-27T10:41:15;3.55;;;0.82;;
41709;SDS011;59402;48.396;-4.472;2022-08-27T10:51:58;3.13;;;0.95;;
41709;SDS011;59402;48.396;-4.472;2022-08-27T11:02:26;4.88;;;1.00;;
41709;SDS011;59402;48.396;-4.472;2022-08-27T11:05:22;4.53;;;0.80;;
41709;SDS011;59402;48.396;-4.472;2022-08-27T11:08:34;3.65;;;0.85;;
41709;SDS011;59402;48.396;-4.472;2022-08-27T11:10:56;4.32;;;1.40;;
41709;SDS011;59402;48.396;-4.472;2022-08-27T11:18:50;4.03;;;0.70;;
41709;SDS011;59402;48.396;-4.472;2022-08-27T11:24:28;5.32;;;1.17;;
41709;SDS011;59402;48.396;-4.472;2022-08-27T11:27:02;3.92;;;0.80;;
41709;SDS011;59402;48.396;-4.472;2022-08-27T11:29:35;4.78;;;1.20;;
41709;SDS011;59402;48.396;-4.472;2022-08-27T11:32:19;3.10;;;1.15;;
41709;SDS011;59402;48.396;-4.472;2022-08-27T11:34:55;3.65;;;1.00;;
41709;SDS011;59402;48.396;-4.472;2022-08-27T11:45:59;5.68;;;0.95;;
41709;SDS011;59402;48.396;-4.472;2022-08-27T11:48:30;3.28;;;1.00;;
41709;SDS011;59402;48.396;-4.472;2022-08-27T11:53:33;4.85;;;0.95;;
41709;SDS011;59402;48.396;-4.472;2022-08-27T12:01:51;3.95;;;0.90;;
41709;SDS011;59402;48.396;-4.472;2022-08-27T12:04:21;11.35;;;1.50;;
41709;SDS011;59402;48.396;-4.472;2022-08-27T12:06:51;5.90;;;0.85;;
41709;SDS011;59402;48.396;-4.472;2022-08-27T12:09:26;2.88;;;0.80;;
41709;SDS011;59402;48.396;-4.472;2022-08-27T12:22:39;3.80;;;0.90;;
41709;SDS011;59402;48.396;-4.472;2022-08-27T12:25:26;4.13;;;1.00;;
41709;SDS011;59402;48.396;-4.472;2022-08-27T12:27:58;3.72;;;1.00;;
41709;SDS011;59402;48.396;-4.472;2022-08-27T12:30:35;3.85;;;0.90;;
41709;SDS011;59402;48.396;-4.472;2022-08-27T12:33:11;4.05;;;0.73;;
41709;SDS011;59402;48.396;-4.472;2022-08-27T12:35:47;2.63;;;0.80;;
41709;SDS011;59402;48.396;-4.472;2022-08-27T12:40:56;6.53;;;0.80;;
41709;SDS011;59402;48.396;-4.472;2022-08-27T12:43:29;4.88;;;1.00;;
41709;SDS011;59402;48.396;-4.472;2022-08-27T12:51:06;3.42;;;0.95;;
41709;SDS011;59402;48.396;-4.472;2022-08-27T12:53:40;3.67;;;1.27;;
41709;SDS011;59402;48.396;-4.472;2022-08-27T13:02:02;13.55;;;1.25;;
41709;SDS011;59402;48.396;-4.472;2022-08-27T13:04:34;4.22;;;1.00;;
41709;SDS011;59402;48.396;-4.472;2022-08-27T13:07:03;3.67;;;0.80;;
41709;SDS011;59402;48.396;-4.472;2022-08-27T13:09:30;4.07;;;0.73;;
41709;SDS011;59402;48.396;-4.472;2022-08-27T13:11:58;2.67;;;0.95;;
41709;SDS011;59402;48.396;-4.472;2022-08-27T13:14:26;2.25;;;0.88;;
41709;SDS011;59402;48.396;-4.472;2022-08-27T13:19:26;3.85;;;1.00;;
41709;SDS011;59402;48.396;-4.472;2022-08-27T13:21:54;3.75;;;0.80;;
41709;SDS011;59402;48.396;-4.472;2022-08-27T13:24:26;4.15;;;0.90;;
41709;SDS011;59402;48.396;-4.472;2022-08-27T13:26:52;5.65;;;1.35;;
41709;SDS011;59402;48.396;-4.472;2022-08-27T13:29:18;3.70;;;0.65;;
41709;SDS011;59402;48.396;-4.472;2022-08-27T13:31:44;5.82;;;1.25;;
41709;SDS011;59402;48.396;-4.472;2022-08-27T13:34:14;4.28;;;0.90;;
41709;SDS011;59402;48.396;-4.472;2022-08-27T13:41:58;5.47;;;1.13;;
41709;SDS011;59402;48.396;-4.472;2022-08-27T13:44:38;3.03;;;0.85;;
41709;SDS011;59402;48.396;-4.472;2022-08-27T13:49:32;6.75;;;1.25;;
41709;SDS011;59402;48.396;-4.472;2022-08-27T13:52:22;3.38;;;1.08;;
41709;SDS011;59402;48.396;-4.472;2022-08-27T13:55:02;5.18;;;1.08;;
41709;SDS011;59402;48.396;-4.472;2022-08-27T13:57:46;3.70;;;1.00;;
41709;SDS011;59402;48.396;-4.472;2022-08-27T14:00:22;4.78;;;0.80;;
41709;SDS011;59402;48.396;-4.472;2022-08-27T14:02:51;4.38;;;1.00;;
41709;SDS011;59402;48.396;-4.472;2022-08-27T14:07:53;7.18;;;1.23;;
41709;SDS011;59402;48.396;-4.472;2022-08-27T14:10:24;4.15;;;0.77;;
41709;SDS011;59402;48.396;-4.472;2022-08-27T14:13:18;5.20;;;0.98;;
41709;SDS011;59402;48.396;-4.472;2022-08-27T14:15:48;4.03;;;0.98;;
41709;SDS011;59402;48.396;-4.472;2022-08-27T14:18:33;3.60;;;0.70;;
41709;SDS011;59402;48.396;-4.472;2022-08-27T14:21:01;4.45;;;0.77;;
41709;SDS011;59402;48.396;-4.472;2022-08-27T14:28:22;5.70;;;1.10;;
41709;SDS011;59402;48.396;-4.472;2022-08-27T14:30:49;7.47;;;0.88;;
41709;SDS011;59402;48.396;-4.472;2022-08-27T14:33:15;4.32;;;1.13;;
41709;SDS011;59402;48.396;-4.472;2022-08-27T14:35:42;4.05;;;1.27;;
41709;SDS011;59402;48.396;-4.472;2022-08-27T14:38:21;3.80;;;1.15;;
41709;SDS011;59402;48.396;-4.472;2022-08-27T14:40:51;3.53;;;1.50;;
41709;SDS011;59402;48.396;-4.472;2022-08-27T14:43:18;3.22;;;0.80;;
41709;SDS011;59402;48.396;-4.472;2022-08-27T14:45:45;3.13;;;0.98;;
41709;SDS011;59402;48.396;-4.472;2022-08-27T14:48:14;2.97;;;0.88;;
41709;SDS011;59402;48.396;-4.472;2022-08-27T14:50:53;3.88;;;0.88;;
41709;SDS011;59402;48.396;-4.472;2022-08-27T14:53:44;3.50;;;0.70;;
41709;SDS011;59402;48.396;-4.472;2022-08-27T14:56:19;3.58;;;0.75;;
41709;SDS011;59402;48.396;-4.472;2022-08-27T14:59:09;3.60;;;0.60;;
41709;SDS011;59402;48.396;-4.472;2022-08-27T15:01:43;2.58;;;0.70;;
41709;SDS011;59402;48.396;-4.472;2022-08-27T15:04:09;3.92;;;0.70;;
41709;SDS011;59402;48.396;-4.472;2022-08-27T15:06:34;3.77;;;0.80;;
41709;SDS011;59402;48.396;-4.472;2022-08-27T15:09:00;6.67;;;0.70;;
41709;SDS011;59402;48.396;-4.472;2022-08-27T15:11:27;5.13;;;1.10;;
41709;SDS011;59402;48.396;-4.472;2022-08-27T15:13:56;2.42;;;0.60;;
41709;SDS011;59402;48.396;-4.472;2022-08-27T15:16:43;2.15;;;0.55;;
41709;SDS011;59402;48.396;-4.472;2022-08-27T15:19:19;3.63;;;0.60;;
41709;SDS011;59402;48.396;-4.472;2022-08-27T15:21:50;2.65;;;0.60;;
41709;SDS011;59402;48.396;-4.472;2022-08-27T15:24:31;3.72;;;0.60;;
41709;SDS011;59402;48.396;-4.472;2022-08-27T15:27:16;4.40;;;0.70;;
41709;SDS011;59402;48.396;-4.472;2022-08-27T15:30:11;1.98;;;0.65;;
41709;SDS011;59402;48.396;-4.472;2022-08-27T15:33:19;3.10;;;0.50;;
41709;SDS011;59402;48.396;-4.472;2022-08-27T15:36:13;2.55;;;0.60;;
41709;SDS011;59402;48.396;-4.472;2022-08-27T15:38:39;3.07;;;0.50;;
41709;SDS011;59402;48.396;-4.472;2022-08-27T15:41:24;1.75;;;0.50;;
41709;SDS011;59402;48.396;-4.472;2022-08-27T15:44:06;2.28;;;0.50;;
41709;SDS011;59402;48.396;-4.472;2022-08-27T15:47:01;2.70;;;0.57;;
41709;SDS011;59402;48.396;-4.472;2022-08-27T15:49:46;3.55;;;0.45;;
41709;SDS011;59402;48.396;-4.472;2022-08-27T15:52:24;4.90;;;0.60;;
41709;SDS011;59402;48.396;-4.472;2022-08-27T15:58:16;3.55;;;0.80;;
41709;SDS011;59402;48.396;-4.472;2022-08-27T16:03:18;3.77;;;0.70;;
41709;SDS011;59402;48.396;-4.472;2022-08-27T16:06:08;3.90;;;0.60;;
41709;SDS011;59402;48.396;-4.472;2022-08-27T16:08:38;3.72;;;0.57;;
41709;SDS011;59402;48.396;-4.472;2022-08-27T16:11:12;4.53;;;0.88;;
41709;SDS011;59402;48.396;-4.472;2022-08-27T16:13:38;5.80;;;0.98;;
41709;SDS011;59402;48.396;-4.472;2022-08-27T16:18:37;2.75;;;0.60;;
41709;SDS011;59402;48.396;-4.472;2022-08-27T16:21:05;2.83;;;0.75;;
41709;SDS011;59402;48.396;-4.472;2022-08-27T16:23:31;1.65;;;0.55;;
41709;SDS011;59402;48.396;-4.472;2022-08-27T16:25:57;2.28;;;0.65;;
41709;SDS011;59402;48.396;-4.472;2022-08-27T16:28:23;2.78;;;0.80;;
41709;SDS011;59402;48.396;-4.472;2022-08-27T16:30:49;3.30;;;0.85;;
41709;SDS011;59402;48.396;-4.472;2022-08-27T16:33:17;5.38;;;1.00;;
41709;SDS011;59402;48.396;-4.472;2022-08-27T16:35:43;2.95;;;0.70;;
41709;SDS011;59402;48.396;-4.472;2022-08-27T16:38:09;6.00;;;1.15;;
41709;SDS011;59402;48.396;-4.472;2022-08-27T16:43:12;5.72;;;0.77;;
41709;SDS011;59402;48.396;-4.472;2022-08-27T16:45:40;6.05;;;0.70;;
41709;SDS011;59402;48.396;-4.472;2022-08-27T16:48:05;4.53;;;0.80;;
41709;SDS011;59402;48.396;-4.472;2022-08-27T16:50:49;3.70;;;0.70;;
41709;SDS011;59402;48.396;-4.472;2022-08-27T16:53:15;4.25;;;1.05;;
41709;SDS011;59402;48.396;-4.472;2022-08-27T16:55:43;3.47;;;0.80;;
41709;SDS011;59402;48.396;-4.472;2022-08-27T16:58:16;4.75;;;0.85;;
41709;SDS011;59402;48.396;-4.472;2022-08-27T17:00:45;7.38;;;1.00;;
41709;SDS011;59402;48.396;-4.472;2022-08-27T17:03:13;4.07;;;0.75;;
41709;SDS011;59402;48.396;-4.472;2022-08-27T17:05:40;5.03;;;1.10;;
41709;SDS011;59402;48.396;-4.472;2022-08-27T17:08:05;4.03;;;0.80;;
41709;SDS011;59402;48.396;-4.472;2022-08-27T17:10:33;5.47;;;1.00;;